sensor_id;sensor_type;location;lat;lon;timestamp;temperature;humidity
44537;DHT22;30245;51.966;6.292;2022-12-18T00:01:28;1.90;57.20
44537;DHT22;30245;51.966;6.292;2022-12-18T00:03:55;1.80;57.10
44537;DHT22;30245;51.966;6.292;2022-12-18T00:06:22;1.80;57.10
44537;DHT22;30245;51.966;6.292;2022-12-18T00:08:48;1.90;57.10
44537;DHT22;30245;51.966;6.292;2022-12-18T00:11:20;1.90;56.90
44537;DHT22;30245;51.966;6.292;2022-12-18T00:13:46;1.90;56.90
44537;DHT22;30245;51.966;6.292;2022-12-18T00:16:16;1.90;56.90
44537;DHT22;30245;51.966;6.292;2022-12-18T00:18:42;1.90;56.80
44537;DHT22;30245;51.966;6.292;2022-12-18T00:21:10;1.90;56.70
44537;DHT22;30245;51.966;6.292;2022-12-18T00:23:37;1.90;56.70
44537;DHT22;30245;51.966;6.292;2022-12-18T00:26:09;1.80;56.70
44537;DHT22;30245;51.966;6.292;2022-12-18T00:28:35;1.80;56.80
44537;DHT22;30245;51.966;6.292;2022-12-18T00:31:06;1.70;56.80
44537;DHT22;30245;51.966;6.292;2022-12-18T00:33:33;1.70;56.80
44537;DHT22;30245;51.966;6.292;2022-12-18T00:38:27;1.70;56.70
44537;DHT22;30245;51.966;6.292;2022-12-18T00:40:53;1.70;56.70
44537;DHT22;30245;51.966;6.292;2022-12-18T00:43:18;1.70;56.50
44537;DHT22;30245;51.966;6.292;2022-12-18T00:45:44;1.60;56.40
44537;DHT22;30245;51.966;6.292;2022-12-18T00:48:10;1.60;56.50
44537;DHT22;30245;51.966;6.292;2022-12-18T00:50:36;1.60;56.50
44537;DHT22;30245;51.966;6.292;2022-12-18T00:53:01;1.60;56.60
44537;DHT22;30245;51.966;6.292;2022-12-18T00:55:27;1.60;56.60
44537;DHT22;30245;51.966;6.292;2022-12-18T00:57:53;1.60;56.50
44537;DHT22;30245;51.966;6.292;2022-12-18T01:00:18;1.50;56.40
44537;DHT22;30245;51.966;6.292;2022-12-18T01:02:44;1.50;56.50
44537;DHT22;30245;51.966;6.292;2022-12-18T01:05:11;1.50;56.60
44537;DHT22;30245;51.966;6.292;2022-12-18T01:07:37;1.40;56.60
44537;DHT22;30245;51.966;6.292;2022-12-18T01:10:04;1.30;56.70
44537;DHT22;30245;51.966;6.292;2022-12-18T01:12:30;1.30;56.80
44537;DHT22;30245;51.966;6.292;2022-12-18T01:14:56;1.30;56.90
44537;DHT22;30245;51.966;6.292;2022-12-18T01:17:21;1.40;56.90
44537;DHT22;30245;51.966;6.292;2022-12-18T01:19:47;1.30;56.80
44537;DHT22;30245;51.966;6.292;2022-12-18T01:22:13;1.30;56.90
44537;DHT22;30245;51.966;6.292;2022-12-18T01:24:38;1.40;56.90
44537;DHT22;30245;51.966;6.292;2022-12-18T01:27:04;1.40;56.80
44537;DHT22;30245;51.966;6.292;2022-12-18T01:29:29;1.50;56.80
44537;DHT22;30245;51.966;6.292;2022-12-18T01:31:56;1.50;56.80
44537;DHT22;30245;51.966;6.292;2022-12-18T01:34:22;1.50;56.70
44537;DHT22;30245;51.966;6.292;2022-12-18T01:36:48;1.50;56.60
44537;DHT22;30245;51.966;6.292;2022-12-18T01:39:14;1.50;56.80
44537;DHT22;30245;51.966;6.292;2022-12-18T01:41:40;1.50;56.80
44537;DHT22;30245;51.966;6.292;2022-12-18T01:47:37;1.50;56.80
44537;DHT22;30245;51.966;6.292;2022-12-18T01:50:13;1.40;56.90
44537;DHT22;30245;51.966;6.292;2022-12-18T01:52:42;1.40;56.90
44537;DHT22;30245;51.966;6.292;2022-12-18T01:55:09;1.40;57.00
44537;DHT22;30245;51.966;6.292;2022-12-18T01:57:35;1.40;56.90
44537;DHT22;30245;51.966;6.292;2022-12-18T02:00:08;1.40;57.00
44537;DHT22;30245;51.966;6.292;2022-12-18T02:02:34;1.40;56.90
44537;DHT22;30245;51.966;6.292;2022-12-18T02:05:00;1.40;57.50
44537;DHT22;30245;51.966;6.292;2022-12-18T02:15:33;1.30;56.90
44537;DHT22;30245;51.966;6.292;2022-12-18T02:18:10;1.30;56.90
44537;DHT22;30245;51.966;6.292;2022-12-18T02:21:00;1.30;56.90
44537;DHT22;30245;51.966;6.292;2022-12-18T02:26:34;1.40;56.80
44537;DHT22;30245;51.966;6.292;2022-12-18T02:29:09;1.40;56.70
44537;DHT22;30245;51.966;6.292;2022-12-18T02:31:40;1.40;56.80
44537;DHT22;30245;51.966;6.292;2022-12-18T02:34:08;1.40;56.70
44537;DHT22;30245;51.966;6.292;2022-12-18T02:36:36;1.40;56.70
44537;DHT22;30245;51.966;6.292;2022-12-18T02:39:03;1.40;56.70
44537;DHT22;30245;51.966;6.292;2022-12-18T02:41:31;1.40;56.60
44537;DHT22;30245;51.966;6.292;2022-12-18T02:44:00;1.50;56.40
44537;DHT22;30245;51.966;6.292;2022-12-18T02:48:56;1.40;56.60
44537;DHT22;30245;51.966;6.292;2022-12-18T02:51:29;1.40;56.70
44537;DHT22;30245;51.966;6.292;2022-12-18T02:54:10;1.40;56.60
44537;DHT22;30245;51.966;6.292;2022-12-18T02:56:45;1.40;56.60
44537;DHT22;30245;51.966;6.292;2022-12-18T02:59:15;1.40;56.50
44537;DHT22;30245;51.966;6.292;2022-12-18T03:01:57;1.50;56.50
44537;DHT22;30245;51.966;6.292;2022-12-18T03:05:05;1.50;56.30
44537;DHT22;30245;51.966;6.292;2022-12-18T03:07:40;1.50;56.20
44537;DHT22;30245;51.966;6.292;2022-12-18T03:10:11;1.60;56.10
44537;DHT22;30245;51.966;6.292;2022-12-18T03:12:52;1.60;56.00
44537;DHT22;30245;51.966;6.292;2022-12-18T03:15:24;1.60;56.00
44537;DHT22;30245;51.966;6.292;2022-12-18T03:17:59;1.60;55.90
44537;DHT22;30245;51.966;6.292;2022-12-18T03:20:29;1.60;55.90
44537;DHT22;30245;51.966;6.292;2022-12-18T03:23:02;1.60;55.90
44537;DHT22;30245;51.966;6.292;2022-12-18T03:25:31;1.60;55.80
44537;DHT22;30245;51.966;6.292;2022-12-18T03:28:01;1.70;55.80
44537;DHT22;30245;51.966;6.292;2022-12-18T03:30:29;1.70;55.70
44537;DHT22;30245;51.966;6.292;2022-12-18T03:33:36;1.70;55.60
44537;DHT22;30245;51.966;6.292;2022-12-18T03:36:03;1.70;55.60
44537;DHT22;30245;51.966;6.292;2022-12-18T03:38:29;1.60;55.40
44537;DHT22;30245;51.966;6.292;2022-12-18T03:41:03;1.60;55.50
44537;DHT22;30245;51.966;6.292;2022-12-18T03:46:11;1.40;55.50
44537;DHT22;30245;51.966;6.292;2022-12-18T03:48:47;1.30;55.60
44537;DHT22;30245;51.966;6.292;2022-12-18T03:56:21;1.20;55.60
44537;DHT22;30245;51.966;6.292;2022-12-18T03:58:48;1.20;55.60
44537;DHT22;30245;51.966;6.292;2022-12-18T04:01:17;1.20;55.60
44537;DHT22;30245;51.966;6.292;2022-12-18T04:03:44;1.20;55.50
44537;DHT22;30245;51.966;6.292;2022-12-18T04:06:12;1.20;55.60
44537;DHT22;30245;51.966;6.292;2022-12-18T04:08:38;1.20;55.60
44537;DHT22;30245;51.966;6.292;2022-12-18T04:11:05;1.20;55.60
44537;DHT22;30245;51.966;6.292;2022-12-18T04:13:38;1.20;55.60
44537;DHT22;30245;51.966;6.292;2022-12-18T04:16:04;1.10;55.50
44537;DHT22;30245;51.966;6.292;2022-12-18T04:18:30;1.10;55.60
44537;DHT22;30245;51.966;6.292;2022-12-18T04:20:55;1.10;55.60
44537;DHT22;30245;51.966;6.292;2022-12-18T04:23:21;1.10;55.60
44537;DHT22;30245;51.966;6.292;2022-12-18T04:25:47;1.10;55.60
44537;DHT22;30245;51.966;6.292;2022-12-18T04:28:13;1.00;55.60
44537;DHT22;30245;51.966;6.292;2022-12-18T04:30:38;1.00;55.60
44537;DHT22;30245;51.966;6.292;2022-12-18T04:33:11;1.00;55.60
44537;DHT22;30245;51.966;6.292;2022-12-18T04:35:36;1.00;55.70
44537;DHT22;30245;51.966;6.292;2022-12-18T04:38:02;1.00;55.80
44537;DHT22;30245;51.966;6.292;2022-12-18T04:40:28;1.00;55.80
44537;DHT22;30245;51.966;6.292;2022-12-18T04:42:53;1.00;55.80
44537;DHT22;30245;51.966;6.292;2022-12-18T04:45:19;1.00;55.80
44537;DHT22;30245;51.966;6.292;2022-12-18T04:47:44;1.00;55.80
44537;DHT22;30245;51.966;6.292;2022-12-18T04:50:10;1.00;55.80
44537;DHT22;30245;51.966;6.292;2022-12-18T04:52:35;1.00;55.80
44537;DHT22;30245;51.966;6.292;2022-12-18T04:55:01;1.00;55.80
44537;DHT22;30245;51.966;6.292;2022-12-18T04:57:26;1.00;55.80
44537;DHT22;30245;51.966;6.292;2022-12-18T04:59:52;1.00;55.80
44537;DHT22;30245;51.966;6.292;2022-12-18T05:02:18;1.00;55.80
44537;DHT22;30245;51.966;6.292;2022-12-18T05:04:43;1.10;55.90
44537;DHT22;30245;51.966;6.292;2022-12-18T05:07:09;1.10;55.90
44537;DHT22;30245;51.966;6.292;2022-12-18T05:09:34;1.10;55.90
44537;DHT22;30245;51.966;6.292;2022-12-18T05:12:00;1.10;55.90
44537;DHT22;30245;51.966;6.292;2022-12-18T05:14:25;1.10;55.80
44537;DHT22;30245;51.966;6.292;2022-12-18T05:16:52;1.10;55.80
44537;DHT22;30245;51.966;6.292;2022-12-18T05:19:18;1.20;55.80
44537;DHT22;30245;51.966;6.292;2022-12-18T05:21:44;1.20;55.70
44537;DHT22;30245;51.966;6.292;2022-12-18T05:24:09;1.20;55.70
44537;DHT22;30245;51.966;6.292;2022-12-18T05:26:35;1.20;55.60
44537;DHT22;30245;51.966;6.292;2022-12-18T05:29:00;1.30;55.60
44537;DHT22;30245;51.966;6.292;2022-12-18T05:31:26;1.20;55.50
44537;DHT22;30245;51.966;6.292;2022-12-18T05:33:51;1.20;55.50
44537;DHT22;30245;51.966;6.292;2022-12-18T05:36:17;1.30;55.50
44537;DHT22;30245;51.966;6.292;2022-12-18T05:38:42;1.30;55.40
44537;DHT22;30245;51.966;6.292;2022-12-18T05:41:09;1.30;55.30
44537;DHT22;30245;51.966;6.292;2022-12-18T05:43:36;1.30;55.40
44537;DHT22;30245;51.966;6.292;2022-12-18T05:46:07;1.30;55.40
44537;DHT22;30245;51.966;6.292;2022-12-18T05:48:33;1.20;55.40
44537;DHT22;30245;51.966;6.292;2022-12-18T05:51:07;1.30;55.50
44537;DHT22;30245;51.966;6.292;2022-12-18T05:53:33;1.30;55.40
44537;DHT22;30245;51.966;6.292;2022-12-18T05:56:01;1.30;55.30
44537;DHT22;30245;51.966;6.292;2022-12-18T05:58:27;1.30;55.90
44537;DHT22;30245;51.966;6.292;2022-12-18T06:00:53;1.30;55.30
44537;DHT22;30245;51.966;6.292;2022-12-18T06:03:18;1.30;55.20
44537;DHT22;30245;51.966;6.292;2022-12-18T06:05:45;1.30;55.20
44537;DHT22;30245;51.966;6.292;2022-12-18T06:08:12;1.30;55.10
44537;DHT22;30245;51.966;6.292;2022-12-18T06:10:39;1.30;55.20
44537;DHT22;30245;51.966;6.292;2022-12-18T06:13:05;1.20;55.10
44537;DHT22;30245;51.966;6.292;2022-12-18T06:15:31;1.20;55.10
44537;DHT22;30245;51.966;6.292;2022-12-18T06:17:57;1.20;55.10
44537;DHT22;30245;51.966;6.292;2022-12-18T06:20:23;1.10;55.10
44537;DHT22;30245;51.966;6.292;2022-12-18T06:22:48;1.20;55.10
44537;DHT22;30245;51.966;6.292;2022-12-18T06:25:14;1.10;55.00
44537;DHT22;30245;51.966;6.292;2022-12-18T06:27:40;1.20;55.10
44537;DHT22;30245;51.966;6.292;2022-12-18T06:30:06;1.10;55.00
44537;DHT22;30245;51.966;6.292;2022-12-18T06:32:31;1.10;54.90
44537;DHT22;30245;51.966;6.292;2022-12-18T06:34:57;1.10;55.00
44537;DHT22;30245;51.966;6.292;2022-12-18T06:37:23;1.10;55.00
44537;DHT22;30245;51.966;6.292;2022-12-18T06:39:51;1.10;55.00
44537;DHT22;30245;51.966;6.292;2022-12-18T06:42:17;1.00;55.00
44537;DHT22;30245;51.966;6.292;2022-12-18T06:44:43;1.00;55.10
44537;DHT22;30245;51.966;6.292;2022-12-18T06:47:08;0.90;55.10
44537;DHT22;30245;51.966;6.292;2022-12-18T06:49:34;0.90;55.10
44537;DHT22;30245;51.966;6.292;2022-12-18T06:51:59;0.90;55.20
44537;DHT22;30245;51.966;6.292;2022-12-18T06:54:25;0.90;55.20
44537;DHT22;30245;51.966;6.292;2022-12-18T06:56:51;0.90;55.20
44537;DHT22;30245;51.966;6.292;2022-12-18T06:59:16;0.90;55.20
44537;DHT22;30245;51.966;6.292;2022-12-18T07:01:42;0.90;55.10
44537;DHT22;30245;51.966;6.292;2022-12-18T07:04:07;0.90;55.00
44537;DHT22;30245;51.966;6.292;2022-12-18T07:06:33;0.90;55.00
44537;DHT22;30245;51.966;6.292;2022-12-18T07:08:58;0.80;55.20
44537;DHT22;30245;51.966;6.292;2022-12-18T07:11:24;0.80;55.20
44537;DHT22;30245;51.966;6.292;2022-12-18T07:13:52;0.80;55.20
44537;DHT22;30245;51.966;6.292;2022-12-18T07:16:19;0.80;55.20
44537;DHT22;30245;51.966;6.292;2022-12-18T07:18:45;0.80;55.10
44537;DHT22;30245;51.966;6.292;2022-12-18T07:21:16;0.80;55.20
44537;DHT22;30245;51.966;6.292;2022-12-18T07:23:42;0.80;55.30
44537;DHT22;30245;51.966;6.292;2022-12-18T07:26:12;0.90;55.50
44537;DHT22;30245;51.966;6.292;2022-12-18T07:28:39;0.90;55.40
44537;DHT22;30245;51.966;6.292;2022-12-18T07:31:07;1.00;55.40
44537;DHT22;30245;51.966;6.292;2022-12-18T07:33:34;1.00;55.30
44537;DHT22;30245;51.966;6.292;2022-12-18T07:36:00;1.00;55.30
44537;DHT22;30245;51.966;6.292;2022-12-18T07:38:26;1.10;55.40
44537;DHT22;30245;51.966;6.292;2022-12-18T07:40:52;1.10;55.40
44537;DHT22;30245;51.966;6.292;2022-12-18T07:43:17;1.10;55.30
44537;DHT22;30245;51.966;6.292;2022-12-18T07:45:43;1.20;55.40
44537;DHT22;30245;51.966;6.292;2022-12-18T07:48:09;1.30;55.40
44537;DHT22;30245;51.966;6.292;2022-12-18T07:50:35;1.30;55.30
44537;DHT22;30245;51.966;6.292;2022-12-18T07:53:00;1.30;55.20
44537;DHT22;30245;51.966;6.292;2022-12-18T07:55:29;1.30;55.20
44537;DHT22;30245;51.966;6.292;2022-12-18T07:57:55;1.40;55.20
44537;DHT22;30245;51.966;6.292;2022-12-18T08:00:21;1.40;55.10
44537;DHT22;30245;51.966;6.292;2022-12-18T08:02:47;1.40;55.10
44537;DHT22;30245;51.966;6.292;2022-12-18T08:05:13;1.50;55.30
44537;DHT22;30245;51.966;6.292;2022-12-18T08:07:39;1.50;55.20
44537;DHT22;30245;51.966;6.292;2022-12-18T08:10:05;1.50;55.20
44537;DHT22;30245;51.966;6.292;2022-12-18T08:12:31;1.60;55.20
44537;DHT22;30245;51.966;6.292;2022-12-18T08:14:57;1.70;55.40
44537;DHT22;30245;51.966;6.292;2022-12-18T08:17:22;1.90;55.50
44537;DHT22;30245;51.966;6.292;2022-12-18T08:19:48;2.20;55.40
44537;DHT22;30245;51.966;6.292;2022-12-18T08:22:13;2.40;55.10
44537;DHT22;30245;51.966;6.292;2022-12-18T08:24:39;2.60;54.90
44537;DHT22;30245;51.966;6.292;2022-12-18T08:27:05;2.80;54.90
44537;DHT22;30245;51.966;6.292;2022-12-18T08:29:30;2.90;54.70
44537;DHT22;30245;51.966;6.292;2022-12-18T08:31:57;3.00;54.60
44537;DHT22;30245;51.966;6.292;2022-12-18T08:34:22;3.00;54.60
44537;DHT22;30245;51.966;6.292;2022-12-18T08:36:48;3.10;54.60
44537;DHT22;30245;51.966;6.292;2022-12-18T08:39:13;3.10;54.60
44537;DHT22;30245;51.966;6.292;2022-12-18T08:41:39;3.10;54.70
44537;DHT22;30245;51.966;6.292;2022-12-18T08:44:06;3.20;54.70
44537;DHT22;30245;51.966;6.292;2022-12-18T08:46:51;3.30;54.80
44537;DHT22;30245;51.966;6.292;2022-12-18T08:49:16;3.40;54.60
44537;DHT22;30245;51.966;6.292;2022-12-18T08:51:42;3.50;54.50
44537;DHT22;30245;51.966;6.292;2022-12-18T08:54:11;3.70;54.50
44537;DHT22;30245;51.966;6.292;2022-12-18T08:56:37;3.70;54.40
44537;DHT22;30245;51.966;6.292;2022-12-18T08:59:03;3.80;54.40
44537;DHT22;30245;51.966;6.292;2022-12-18T09:01:29;3.80;54.50
44537;DHT22;30245;51.966;6.292;2022-12-18T09:03:55;3.90;54.50
44537;DHT22;30245;51.966;6.292;2022-12-18T09:06:22;3.90;54.60
44537;DHT22;30245;51.966;6.292;2022-12-18T09:08:48;3.90;54.50
44537;DHT22;30245;51.966;6.292;2022-12-18T09:11:19;4.00;54.40
44537;DHT22;30245;51.966;6.292;2022-12-18T09:13:45;4.00;54.30
44537;DHT22;30245;51.966;6.292;2022-12-18T09:16:11;4.10;54.30
44537;DHT22;30245;51.966;6.292;2022-12-18T09:18:37;4.10;54.30
44537;DHT22;30245;51.966;6.292;2022-12-18T09:21:11;4.10;54.40
44537;DHT22;30245;51.966;6.292;2022-12-18T09:23:37;4.30;54.50
44537;DHT22;30245;51.966;6.292;2022-12-18T09:26:02;4.40;54.40
44537;DHT22;30245;51.966;6.292;2022-12-18T09:28:28;4.60;54.20
44537;DHT22;30245;51.966;6.292;2022-12-18T09:30:54;4.70;54.00
44537;DHT22;30245;51.966;6.292;2022-12-18T09:33:19;4.70;53.70
44537;DHT22;30245;51.966;6.292;2022-12-18T09:35:45;4.80;53.60
44537;DHT22;30245;51.966;6.292;2022-12-18T09:38:14;4.90;53.70
44537;DHT22;30245;51.966;6.292;2022-12-18T09:40:51;5.00;53.60
44537;DHT22;30245;51.966;6.292;2022-12-18T09:43:22;5.00;53.30
44537;DHT22;30245;51.966;6.292;2022-12-18T09:45:55;5.00;53.30
44537;DHT22;30245;51.966;6.292;2022-12-18T09:48:26;5.10;53.20
44537;DHT22;30245;51.966;6.292;2022-12-18T09:50:55;5.10;53.20
44537;DHT22;30245;51.966;6.292;2022-12-18T09:53:26;5.30;53.20
44537;DHT22;30245;51.966;6.292;2022-12-18T09:55:52;5.30;53.10
44537;DHT22;30245;51.966;6.292;2022-12-18T09:58:41;5.20;52.70
44537;DHT22;30245;51.966;6.292;2022-12-18T10:01:18;5.20;52.80
44537;DHT22;30245;51.966;6.292;2022-12-18T10:03:46;5.20;52.90
44537;DHT22;30245;51.966;6.292;2022-12-18T10:23:26;5.00;52.80
44537;DHT22;30245;51.966;6.292;2022-12-18T10:26:05;4.90;52.70
44537;DHT22;30245;51.966;6.292;2022-12-18T10:28:33;4.90;52.70
44537;DHT22;30245;51.966;6.292;2022-12-18T10:31:00;5.00;52.70
44537;DHT22;30245;51.966;6.292;2022-12-18T10:33:30;5.00;52.50
44537;DHT22;30245;51.966;6.292;2022-12-18T10:35:56;4.90;52.50
44537;DHT22;30245;51.966;6.292;2022-12-18T10:38:30;4.90;52.70
44537;DHT22;30245;51.966;6.292;2022-12-18T10:41:08;5.00;52.70
44537;DHT22;30245;51.966;6.292;2022-12-18T10:44:20;5.00;52.60
44537;DHT22;30245;51.966;6.292;2022-12-18T10:47:02;5.10;52.50
44537;DHT22;30245;51.966;6.292;2022-12-18T10:49:32;5.10;52.30
44537;DHT22;30245;51.966;6.292;2022-12-18T10:52:07;5.10;52.30
44537;DHT22;30245;51.966;6.292;2022-12-18T10:54:36;5.10;52.40
44537;DHT22;30245;51.966;6.292;2022-12-18T10:57:36;5.00;52.30
44537;DHT22;30245;51.966;6.292;2022-12-18T11:00:27;5.10;52.40
44537;DHT22;30245;51.966;6.292;2022-12-18T11:02:53;5.00;52.30
44537;DHT22;30245;51.966;6.292;2022-12-18T11:07:51;5.00;52.20
44537;DHT22;30245;51.966;6.292;2022-12-18T11:10:18;5.10;52.20
44537;DHT22;30245;51.966;6.292;2022-12-18T11:12:44;5.10;52.10
44537;DHT22;30245;51.966;6.292;2022-12-18T11:15:26;5.10;52.10
44537;DHT22;30245;51.966;6.292;2022-12-18T11:17:53;5.20;52.10
44537;DHT22;30245;51.966;6.292;2022-12-18T11:20:20;5.20;52.00
44537;DHT22;30245;51.966;6.292;2022-12-18T11:23:11;5.20;52.00
44537;DHT22;30245;51.966;6.292;2022-12-18T11:25:38;5.20;51.90
44537;DHT22;30245;51.966;6.292;2022-12-18T11:28:25;5.30;51.90
44537;DHT22;30245;51.966;6.292;2022-12-18T11:31:24;5.30;51.80
44537;DHT22;30245;51.966;6.292;2022-12-18T11:36:22;5.40;51.60
44537;DHT22;30245;51.966;6.292;2022-12-18T11:38:50;5.40;51.60
44537;DHT22;30245;51.966;6.292;2022-12-18T11:41:30;5.40;51.60
44537;DHT22;30245;51.966;6.292;2022-12-18T11:44:35;5.40;51.60
44537;DHT22;30245;51.966;6.292;2022-12-18T11:47:14;5.40;51.60
44537;DHT22;30245;51.966;6.292;2022-12-18T11:49:41;5.40;51.60
44537;DHT22;30245;51.966;6.292;2022-12-18T11:52:21;5.40;51.50
44537;DHT22;30245;51.966;6.292;2022-12-18T11:54:47;5.40;51.40
44537;DHT22;30245;51.966;6.292;2022-12-18T12:03:17;5.50;51.40
44537;DHT22;30245;51.966;6.292;2022-12-18T12:14:07;5.40;51.30
44537;DHT22;30245;51.966;6.292;2022-12-18T12:22:45;5.50;51.40
44537;DHT22;30245;51.966;6.292;2022-12-18T12:25:33;5.50;51.20
44537;DHT22;30245;51.966;6.292;2022-12-18T12:31:26;5.60;51.20
44537;DHT22;30245;51.966;6.292;2022-12-18T12:36:48;5.70;51.00
44537;DHT22;30245;51.966;6.292;2022-12-18T12:39:22;5.70;51.10
44537;DHT22;30245;51.966;6.292;2022-12-18T12:41:48;5.70;51.00
44537;DHT22;30245;51.966;6.292;2022-12-18T12:44:38;5.70;51.00
44537;DHT22;30245;51.966;6.292;2022-12-18T12:47:16;5.70;51.10
44537;DHT22;30245;51.966;6.292;2022-12-18T12:49:43;5.60;51.00
44537;DHT22;30245;51.966;6.292;2022-12-18T12:52:16;5.70;51.00
44537;DHT22;30245;51.966;6.292;2022-12-18T12:54:43;5.80;51.10
44537;DHT22;30245;51.966;6.292;2022-12-18T12:57:17;5.80;50.90
44537;DHT22;30245;51.966;6.292;2022-12-18T12:59:59;5.90;50.80
44537;DHT22;30245;51.966;6.292;2022-12-18T13:08:07;6.00;50.70
44537;DHT22;30245;51.966;6.292;2022-12-18T13:15:38;5.90;50.60
44537;DHT22;30245;51.966;6.292;2022-12-18T13:20:48;6.00;50.60
44537;DHT22;30245;51.966;6.292;2022-12-18T13:25:53;6.00;50.60
44537;DHT22;30245;51.966;6.292;2022-12-18T13:34:23;5.90;50.70
44537;DHT22;30245;51.966;6.292;2022-12-18T13:36:49;5.90;50.80
44537;DHT22;30245;51.966;6.292;2022-12-18T13:44:59;6.00;50.60
44537;DHT22;30245;51.966;6.292;2022-12-18T13:47:31;6.00;50.60
44537;DHT22;30245;51.966;6.292;2022-12-18T13:49:58;6.00;50.50
44537;DHT22;30245;51.966;6.292;2022-12-18T13:52:29;6.10;50.50
44537;DHT22;30245;51.966;6.292;2022-12-18T13:55:00;6.10;50.40
44537;DHT22;30245;51.966;6.292;2022-12-18T13:57:32;6.20;50.50
44537;DHT22;30245;51.966;6.292;2022-12-18T13:59:59;6.20;50.40
44537;DHT22;30245;51.966;6.292;2022-12-18T14:02:37;6.20;50.40
44537;DHT22;30245;51.966;6.292;2022-12-18T14:05:03;6.20;50.40
44537;DHT22;30245;51.966;6.292;2022-12-18T14:07:29;6.20;50.40
44537;DHT22;30245;51.966;6.292;2022-12-18T14:09:58;6.20;50.40
44537;DHT22;30245;51.966;6.292;2022-12-18T14:12:30;6.20;50.40
44537;DHT22;30245;51.966;6.292;2022-12-18T14:15:40;6.20;50.40
44537;DHT22;30245;51.966;6.292;2022-12-18T14:21:02;6.20;50.40
44537;DHT22;30245;51.966;6.292;2022-12-18T14:23:39;6.30;50.50
44537;DHT22;30245;51.966;6.292;2022-12-18T14:26:27;6.30;50.40
44537;DHT22;30245;51.966;6.292;2022-12-18T14:28:55;6.30;50.30
44537;DHT22;30245;51.966;6.292;2022-12-18T14:31:26;6.30;50.30
44537;DHT22;30245;51.966;6.292;2022-12-18T14:33:52;6.30;50.90
44537;DHT22;30245;51.966;6.292;2022-12-18T14:36:24;6.30;50.40
44537;DHT22;30245;51.966;6.292;2022-12-18T14:38:55;6.30;50.30
44537;DHT22;30245;51.966;6.292;2022-12-18T14:41:22;6.30;50.40
44537;DHT22;30245;51.966;6.292;2022-12-18T14:43:50;6.30;50.40
44537;DHT22;30245;51.966;6.292;2022-12-18T14:48:53;6.30;50.40
44537;DHT22;30245;51.966;6.292;2022-12-18T14:51:21;6.30;50.40
44537;DHT22;30245;51.966;6.292;2022-12-18T14:56:22;6.40;50.20
44537;DHT22;30245;51.966;6.292;2022-12-18T14:59:00;6.40;50.20
44537;DHT22;30245;51.966;6.292;2022-12-18T15:01:29;6.40;50.30
44537;DHT22;30245;51.966;6.292;2022-12-18T15:03:57;6.40;50.30
44537;DHT22;30245;51.966;6.292;2022-12-18T15:06:37;6.40;50.20
44537;DHT22;30245;51.966;6.292;2022-12-18T15:09:24;6.30;50.30
44537;DHT22;30245;51.966;6.292;2022-12-18T15:11:59;6.30;50.40
44537;DHT22;30245;51.966;6.292;2022-12-18T15:14:39;6.30;50.40
44537;DHT22;30245;51.966;6.292;2022-12-18T15:17:19;6.20;50.40
44537;DHT22;30245;51.966;6.292;2022-12-18T15:19:47;6.30;50.40
44537;DHT22;30245;51.966;6.292;2022-12-18T15:22:25;6.30;50.50
44537;DHT22;30245;51.966;6.292;2022-12-18T15:24:52;6.20;50.50
44537;DHT22;30245;51.966;6.292;2022-12-18T15:32:39;6.30;50.50
44537;DHT22;30245;51.966;6.292;2022-12-18T15:37:40;6.20;50.60
44537;DHT22;30245;51.966;6.292;2022-12-18T15:40:07;6.20;50.60
44537;DHT22;30245;51.966;6.292;2022-12-18T15:42:33;6.20;50.60
44537;DHT22;30245;51.966;6.292;2022-12-18T15:45:17;6.20;50.60
44537;DHT22;30245;51.966;6.292;2022-12-18T15:47:43;6.30;50.60
44537;DHT22;30245;51.966;6.292;2022-12-18T15:50:10;6.30;50.60
44537;DHT22;30245;51.966;6.292;2022-12-18T15:52:41;6.30;50.50
44537;DHT22;30245;51.966;6.292;2022-12-18T15:55:19;6.30;50.60
44537;DHT22;30245;51.966;6.292;2022-12-18T15:58:08;6.30;50.60
44537;DHT22;30245;51.966;6.292;2022-12-18T16:00:35;6.30;50.50
44537;DHT22;30245;51.966;6.292;2022-12-18T16:03:02;6.30;50.50
44537;DHT22;30245;51.966;6.292;2022-12-18T16:05:28;6.40;50.50
44537;DHT22;30245;51.966;6.292;2022-12-18T16:07:54;6.30;50.40
44537;DHT22;30245;51.966;6.292;2022-12-18T16:10:20;6.40;50.50
44537;DHT22;30245;51.966;6.292;2022-12-18T16:12:46;6.30;50.30
44537;DHT22;30245;51.966;6.292;2022-12-18T16:15:13;6.30;50.30
44537;DHT22;30245;51.966;6.292;2022-12-18T16:17:42;6.30;50.30
44537;DHT22;30245;51.966;6.292;2022-12-18T16:20:13;6.30;50.40
44537;DHT22;30245;51.966;6.292;2022-12-18T16:22:40;6.20;50.40
44537;DHT22;30245;51.966;6.292;2022-12-18T16:25:08;6.20;50.40
44537;DHT22;30245;51.966;6.292;2022-12-18T16:27:35;6.20;50.30
44537;DHT22;30245;51.966;6.292;2022-12-18T16:30:01;6.20;50.40
44537;DHT22;30245;51.966;6.292;2022-12-18T16:32:27;6.20;50.30
44537;DHT22;30245;51.966;6.292;2022-12-18T16:34:53;6.20;50.30
44537;DHT22;30245;51.966;6.292;2022-12-18T16:37:18;6.20;50.30
44537;DHT22;30245;51.966;6.292;2022-12-18T16:39:44;6.10;50.30
44537;DHT22;30245;51.966;6.292;2022-12-18T16:42:19;6.20;50.30
44537;DHT22;30245;51.966;6.292;2022-12-18T16:44:46;6.10;50.20
44537;DHT22;30245;51.966;6.292;2022-12-18T16:47:13;6.20;50.10
44537;DHT22;30245;51.966;6.292;2022-12-18T16:49:38;6.20;50.10
44537;DHT22;30245;51.966;6.292;2022-12-18T16:52:05;6.20;49.90
44537;DHT22;30245;51.966;6.292;2022-12-18T16:54:31;6.20;50.00
44537;DHT22;30245;51.966;6.292;2022-12-18T16:56:58;6.20;50.00
44537;DHT22;30245;51.966;6.292;2022-12-18T16:59:25;6.20;50.00
44537;DHT22;30245;51.966;6.292;2022-12-18T17:01:51;6.20;49.90
44537;DHT22;30245;51.966;6.292;2022-12-18T17:04:17;6.20;49.90
44537;DHT22;30245;51.966;6.292;2022-12-18T17:06:44;6.20;49.90
44537;DHT22;30245;51.966;6.292;2022-12-18T17:09:12;6.20;49.90
44537;DHT22;30245;51.966;6.292;2022-12-18T17:11:39;6.20;49.90
44537;DHT22;30245;51.966;6.292;2022-12-18T17:14:09;6.20;49.90
44537;DHT22;30245;51.966;6.292;2022-12-18T17:16:36;6.20;49.90
44537;DHT22;30245;51.966;6.292;2022-12-18T17:19:02;6.10;49.80
44537;DHT22;30245;51.966;6.292;2022-12-18T17:21:28;6.10;49.90
44537;DHT22;30245;51.966;6.292;2022-12-18T17:23:53;6.00;49.90
44537;DHT22;30245;51.966;6.292;2022-12-18T17:26:19;6.00;50.10
44537;DHT22;30245;51.966;6.292;2022-12-18T17:28:45;6.00;50.10
44537;DHT22;30245;51.966;6.292;2022-12-18T17:31:12;5.90;50.20
44537;DHT22;30245;51.966;6.292;2022-12-18T17:33:38;6.00;50.20
44537;DHT22;30245;51.966;6.292;2022-12-18T17:36:04;5.90;50.20
44537;DHT22;30245;51.966;6.292;2022-12-18T17:38:30;5.90;50.20
44537;DHT22;30245;51.966;6.292;2022-12-18T17:41:00;5.90;50.20
44537;DHT22;30245;51.966;6.292;2022-12-18T17:43:26;5.80;50.30
44537;DHT22;30245;51.966;6.292;2022-12-18T17:45:52;5.80;50.40
44537;DHT22;30245;51.966;6.292;2022-12-18T17:48:17;5.80;50.40
44537;DHT22;30245;51.966;6.292;2022-12-18T17:50:43;5.80;50.40
44537;DHT22;30245;51.966;6.292;2022-12-18T17:53:10;5.80;50.40
44537;DHT22;30245;51.966;6.292;2022-12-18T17:55:36;5.80;50.30
44537;DHT22;30245;51.966;6.292;2022-12-18T17:58:01;5.70;50.20